Time;durP1;ratioP1;P1;durP2;ratioP2;P2;SDS_P1;SDS_P2;PMS_P1;PMS_P2;Temp;Humidity;BMP_temperature;BMP_pressure;BME280_temperature;BME280_humidity;BME280_pressure;Samples;Min_cycle;Max_cycle;Signal;HPM_P1;HPM_P2
2021/12/10 00:00:50;;;;;;;8.32;6.45;;;6.80;99.90;;;;;;4952524;28;20031;-68
2021/12/10 00:03:24;;;;;;;8.70;7.28;;;6.80;99.90;;;;;;4951553;28;20397;-70
2021/12/10 00:05:54;;;;;;;7.80;7.00;;;6.70;99.90;;;;;;4952670;28;20039;-68
2021/12/10 00:08:23;;;;;;;11.02;6.97;;;6.60;99.90;;;;;;4951305;28;20557;-68
2021/12/10 00:10:51;;;;;;;8.32;7.07;;;6.60;99.90;;;;;;4952742;28;20031;-70
2021/12/10 00:13:18;;;;;;;10.07;7.00;;;6.70;99.90;;;;;;4950749;28;20062;-69
2021/12/10 00:15:44;;;;;;;7.28;6.43;;;6.60;99.90;;;;;;4951710;28;20038;-68
2021/12/10 00:18:13;;;;;;;12.90;8.10;;;6.50;99.90;;;;;;4950234;28;20427;-70
2021/12/10 00:20:41;;;;;;;8.13;6.32;;;6.40;99.90;;;;;;4950467;28;20034;-69
2021/12/10 00:23:14;;;;;;;8.20;6.80;;;6.40;99.90;;;;;;4949006;28;20039;-69
2021/12/10 00:25:47;;;;;;;8.70;6.80;;;6.40;99.90;;;;;;4951299;28;20028;-69
2021/12/10 00:28:19;;;;;;;8.60;7.40;;;6.30;99.90;;;;;;4949368;28;20636;-70
2021/12/10 00:31:51;;;;;;;8.65;7.53;;;6.30;99.90;;;;;;4951465;28;20030;-70
2021/12/10 00:33:56;;;;;;;9.93;7.10;;;6.40;99.90;;;;;;4942406;28;20035;-68
2021/12/10 00:36:22;;;;;;;8.48;7.68;;;6.40;99.90;;;;;;4951710;28;20050;-69
2021/12/10 00:38:50;;;;;;;9.20;7.80;;;6.40;99.90;;;;;;4951346;28;20043;-69
2021/12/10 00:41:17;;;;;;;8.35;7.43;;;6.40;99.90;;;;;;4950622;28;20522;-68
2021/12/10 00:43:43;;;;;;;9.65;7.78;;;6.30;99.90;;;;;;4948283;28;20028;-69
2021/12/10 00:46:09;;;;;;;8.82;7.97;;;6.30;99.90;;;;;;4949475;28;21322;-70
2021/12/10 00:48:36;;;;;;;7.88;7.07;;;6.20;99.90;;;;;;4945854;28;20031;-69
2021/12/10 00:51:04;;;;;;;9.40;7.10;;;6.10;99.90;;;;;;4951937;28;20090;-70
2021/12/10 00:53:30;;;;;;;7.93;7.18;;;6.10;99.90;;;;;;4950737;28;21532;-69
2021/12/10 00:55:56;;;;;;;7.80;6.72;;;6.10;99.90;;;;;;4951200;28;20074;-70
2021/12/10 00:58:23;;;;;;;8.82;7.93;;;6.20;99.90;;;;;;4950473;28;20031;-70
2021/12/10 01:00:53;;;;;;;10.35;8.55;;;6.20;99.90;;;;;;4950954;28;20046;-70
2021/12/10 01:03:24;;;;;;;8.70;7.80;;;6.20;99.90;;;;;;4949560;28;20027;-70
2021/12/10 01:05:55;;;;;;;11.43;7.80;;;6.10;99.90;;;;;;4948592;28;20047;-70
2021/12/10 01:08:22;;;;;;;8.98;7.07;;;6.10;99.90;;;;;;4951286;28;20027;-70
2021/12/10 01:10:59;;;;;;;8.02;6.80;;;6.10;99.90;;;;;;4950775;28;20035;-70
2021/12/10 01:13:30;;;;;;;9.20;7.93;;;6.10;99.90;;;;;;4950136;28;20086;-70
2021/12/10 01:25:08;;;;;;;8.60;7.47;;;6.00;99.90;;;;;;4948089;28;20155;-68
2021/12/10 01:27:24;;;;;;;7.38;6.57;;;6.00;99.90;;;;;;4948005;28;20039;-68
2021/12/10 01:29:56;;;;;;;8.75;7.32;;;6.00;99.90;;;;;;4950595;28;20035;-69
2021/12/10 01:32:23;;;;;;;;;;;6.00;99.90;;;;;;4950123;28;20033;-69
2021/12/10 01:34:50;;;;;;;7.93;6.40;;;6.00;99.90;;;;;;4949773;28;19914;-69
2021/12/10 01:37:16;;;;;;;8.98;6.75;;;5.90;99.90;;;;;;4947303;28;20023;-69
2021/12/10 01:39:42;;;;;;;8.85;7.18;;;6.00;99.90;;;;;;4950928;28;20030;-70
2021/12/10 01:42:31;;;;;;;8.38;7.10;;;5.90;99.90;;;;;;4951079;28;20501;-69
2021/12/10 01:45:01;;;;;;;8.02;6.60;;;5.90;99.90;;;;;;4950335;28;20024;-70
2021/12/10 01:47:36;;;;;;;9.60;7.68;;;5.90;99.90;;;;;;4950954;28;20026;-72
2021/12/10 01:50:07;;;;;;;7.78;6.30;;;5.90;99.90;;;;;;4947063;28;20027;-70
2021/12/10 01:52:33;;;;;;;7.17;6.47;;;5.80;99.90;;;;;;4945124;28;20028;-69
2021/12/10 01:55:01;;;;;;;8.13;6.95;;;5.80;99.90;;;;;;4946187;28;20122;-70
2021/12/10 01:57:30;;;;;;;8.18;7.18;;;5.80;99.90;;;;;;4947882;28;20065;-70
2021/12/10 01:59:56;;;;;;;6.28;5.68;;;5.80;99.90;;;;;;4948905;28;20027;-68
2021/12/10 02:02:26;;;;;;;9.43;6.88;;;5.70;99.90;;;;;;4948122;28;20023;-69
2021/12/10 02:04:52;;;;;;;7.20;6.38;;;5.70;99.90;;;;;;4947942;28;20573;-69
2021/12/10 02:07:21;;;;;;;7.10;6.40;;;5.70;99.90;;;;;;4948288;28;20106;-69
2021/12/10 02:09:47;;;;;;;8.75;6.60;;;5.70;99.90;;;;;;4950320;29;20117;-68
2021/12/10 02:12:15;;;;;;;9.05;6.65;;;5.60;99.90;;;;;;4948940;28;20393;-68
2021/12/10 02:14:41;;;;;;;9.60;7.93;;;5.60;99.90;;;;;;4947512;28;20073;-71
2021/12/10 02:17:07;;;;;;;8.02;6.57;;;5.60;99.90;;;;;;4966769;28;20042;-70
2021/12/10 02:19:34;;;;;;;8.60;7.18;;;5.60;99.90;;;;;;4954725;28;20034;-69
2021/12/10 02:22:02;;;;;;;10.60;8.10;;;5.50;99.90;;;;;;4950391;28;20051;-69
2021/12/10 02:24:28;;;;;;;8.10;7.32;;;5.50;99.90;;;;;;4946916;28;20030;-70
2021/12/10 02:26:58;;;;;;;8.40;5.70;;;5.40;99.90;;;;;;4951628;28;20027;-70
2021/12/10 02:29:29;;;;;;;8.38;6.60;;;5.40;99.90;;;;;;4953217;28;20169;-69
2021/12/10 02:31:56;;;;;;;5.88;5.32;;;5.40;99.90;;;;;;4950299;28;20038;-69
2021/12/10 02:34:23;;;;;;;6.60;5.88;;;5.30;99.90;;;;;;4955373;29;20130;-68
2021/12/10 02:36:49;;;;;;;8.75;7.35;;;5.30;99.90;;;;;;4954025;28;20027;-69
2021/12/10 02:39:21;;;;;;;9.50;5.93;;;5.30;99.90;;;;;;4954219;28;20042;-69
2021/12/10 02:41:48;;;;;;;6.32;5.30;;;5.20;99.90;;;;;;4953858;28;20482;-69
2021/12/10 02:44:19;;;;;;;6.50;5.53;;;5.30;99.90;;;;;;4954766;28;20453;-71
2021/12/10 02:46:45;;;;;;;7.50;6.25;;;5.30;99.90;;;;;;4954371;28;20082;-68
2021/12/10 02:49:11;;;;;;;8.02;6.40;;;5.40;99.90;;;;;;4953901;28;20035;-69
2021/12/10 02:51:38;;;;;;;8.13;7.32;;;5.40;99.90;;;;;;4969682;28;20023;-70
2021/12/10 02:54:05;;;;;;;7.25;6.20;;;5.30;99.90;;;;;;4950121;28;20031;-68
2021/12/10 02:56:31;;;;;;;7.97;6.25;;;5.20;99.90;;;;;;4956616;28;20438;-69
2021/12/10 02:58:59;;;;;;;9.20;6.75;;;5.10;99.90;;;;;;4951363;28;20024;-69
2021/12/10 03:01:40;;;;;;;8.90;6.43;;;5.10;99.90;;;;;;4952819;28;20449;-67
2021/12/10 03:04:10;;;;;;;9.10;6.82;;;5.10;99.90;;;;;;4952333;28;20054;-69
2021/12/10 03:06:52;;;;;;;6.57;5.97;;;5.00;99.90;;;;;;4954181;28;20442;-69
2021/12/10 03:09:23;;;;;;;7.15;5.80;;;5.00;99.90;;;;;;4952000;28;20194;-69
2021/12/10 03:11:49;;;;;;;10.18;6.78;;;4.90;99.90;;;;;;4951984;28;20086;-69
2021/12/10 03:14:22;;;;;;;7.28;6.25;;;5.00;99.90;;;;;;4952554;28;20522;-67
2021/12/10 03:16:51;;;;;;;6.72;5.78;;;4.90;99.90;;;;;;4970224;28;20031;-68
2021/12/10 03:19:17;;;;;;;5.35;4.85;;;5.00;99.90;;;;;;4954140;28;20489;-68
2021/12/10 03:21:44;;;;;;;7.55;6.43;;;5.00;99.90;;;;;;4950906;28;20027;-68
2021/12/10 03:24:13;;;;;;;8.35;6.60;;;5.00;99.90;;;;;;4951754;28;20481;-68
2021/12/10 03:26:39;;;;;;;10.48;6.95;;;5.00;99.90;;;;;;4952092;28;20429;-70
2021/12/10 03:29:05;;;;;;;9.00;6.65;;;5.10;99.90;;;;;;4952014;28;20078;-69
2021/12/10 03:31:31;;;;;;;7.57;5.65;;;5.00;99.90;;;;;;4951702;28;20342;-69
2021/12/10 03:33:57;;;;;;;8.13;6.05;;;5.00;99.90;;;;;;4953524;28;20024;-70
2021/12/10 03:36:24;;;;;;;7.40;6.00;;;4.90;99.90;;;;;;4951492;28;20027;-70
2021/12/10 03:38:50;;;;;;;5.43;4.88;;;4.90;99.90;;;;;;4953181;28;20030;-71
2021/12/10 03:41:16;;;;;;;7.72;6.03;;;4.90;99.90;;;;;;4952466;28;20114;-70
2021/12/10 03:43:46;;;;;;;6.50;4.97;;;4.90;99.90;;;;;;4952198;28;20034;-69
2021/12/10 03:46:12;;;;;;;7.18;5.22;;;4.90;99.90;;;;;;4951766;28;20034;-70
2021/12/10 03:48:41;;;;;;;8.50;6.03;;;5.00;99.90;;;;;;4952611;28;20102;-70
2021/12/10 03:51:10;;;;;;;6.82;6.22;;;5.00;99.90;;;;;;4951842;28;20033;-69
2021/12/10 03:53:36;;;;;;;6.68;5.45;;;5.00;99.90;;;;;;4945519;28;20028;-68
2021/12/10 03:56:08;;;;;;;6.53;5.38;;;5.00;99.90;;;;;;4952413;28;20499;-69
2021/12/10 03:58:34;;;;;;;7.15;5.82;;;5.00;99.90;;;;;;4950831;28;20031;-70
2021/12/10 04:01:01;;;;;;;6.60;5.93;;;5.00;99.90;;;;;;4950376;28;20054;-68
2021/12/10 04:03:28;;;;;;;6.57;4.88;;;4.90;99.90;;;;;;4951792;28;20674;-71
2021/12/10 04:05:55;;;;;;;8.82;6.47;;;4.90;99.90;;;;;;4954547;28;21250;-70
2021/12/10 04:08:22;;;;;;;4.95;4.43;;;4.80;99.90;;;;;;4951288;28;20483;-68
2021/12/10 04:10:49;;;;;;;6.93;4.90;;;4.80;99.90;;;;;;4953783;28;20029;-71
2021/12/10 04:13:15;;;;;;;6.85;5.88;;;4.80;99.90;;;;;;4952278;28;20070;-68
2021/12/10 04:15:41;;;;;;;10.27;6.65;;;4.70;99.90;;;;;;4952834;28;20054;-69
2021/12/10 04:18:10;;;;;;;6.80;5.88;;;4.70;99.90;;;;;;4950306;28;20073;-68
2021/12/10 04:20:36;;;;;;;7.78;5.68;;;4.70;99.90;;;;;;4952396;28;20481;-70
2021/12/10 04:23:08;;;;;;;7.45;6.05;;;4.80;99.90;;;;;;4950384;28;20157;-70
2021/12/10 04:25:34;;;;;;;6.40;5.80;;;4.80;99.90;;;;;;4970886;28;20063;-69
2021/12/10 04:28:07;;;;;;;5.75;5.15;;;4.80;99.90;;;;;;4951338;28;20063;-68
2021/12/10 04:30:37;;;;;;;6.53;5.93;;;4.90;99.90;;;;;;4951885;28;20342;-70
2021/12/10 04:33:04;;;;;;;7.53;5.32;;;4.80;99.90;;;;;;4949089;28;20098;-70
2021/12/10 04:35:30;;;;;;;7.30;6.38;;;4.80;99.90;;;;;;4949806;28;20038;-69
2021/12/10 04:37:56;;;;;;;8.00;6.07;;;4.80;99.90;;;;;;4951047;28;20060;-70
2021/12/10 04:40:23;;;;;;;9.05;6.68;;;4.80;99.90;;;;;;4951691;28;20027;-69
2021/12/10 04:42:50;;;;;;;7.25;5.90;;;4.80;99.90;;;;;;4951989;28;20106;-68
2021/12/10 04:45:17;;;;;;;7.43;6.03;;;4.80;99.90;;;;;;4952454;29;20023;-70
2021/12/10 04:47:43;;;;;;;9.95;6.07;;;4.80;99.90;;;;;;4952653;28;20038;-70
2021/12/10 04:50:11;;;;;;;9.38;5.80;;;4.80;99.90;;;;;;4951767;28;20550;-69
2021/12/10 04:52:37;;;;;;;7.88;6.63;;;4.80;99.90;;;;;;4949525;28;20058;-68
2021/12/10 04:55:06;;;;;;;5.55;4.63;;;4.70;99.90;;;;;;4951765;28;20035;-68
2021/12/10 04:57:32;;;;;;;6.90;5.45;;;4.70;99.90;;;;;;4949858;28;20023;-71
2021/12/10 04:59:58;;;;;;;6.63;5.88;;;4.80;99.90;;;;;;4951928;28;20095;-69
2021/12/10 05:02:25;;;;;;;7.15;6.45;;;4.80;99.90;;;;;;4949471;28;20457;-69
2021/12/10 05:04:56;;;;;;;6.90;6.22;;;4.80;99.90;;;;;;4950888;28;20031;-69
2021/12/10 05:07:22;;;;;;;8.27;6.47;;;4.70;99.90;;;;;;4950529;28;20469;-69
2021/12/10 05:09:48;;;;;;;8.02;5.88;;;4.70;99.90;;;;;;4951116;28;20027;-70
2021/12/10 05:12:14;;;;;;;6.20;5.28;;;4.70;99.90;;;;;;4951981;28;20379;-70
2021/12/10 05:14:40;;;;;;;8.90;6.22;;;4.80;99.90;;;;;;4951629;28;20083;-70
2021/12/10 05:17:08;;;;;;;6.97;5.97;;;4.90;99.90;;;;;;4951468;28;20104;-70
2021/12/10 05:19:37;;;;;;;7.22;5.93;;;5.00;99.90;;;;;;4951438;28;20038;-69
2021/12/10 05:22:05;;;;;;;10.40;7.85;;;5.00;99.90;;;;;;4945012;28;20388;-69
2021/12/10 05:24:31;;;;;;;7.72;6.47;;;5.10;99.90;;;;;;4970572;28;20023;-70
2021/12/10 05:26:58;;;;;;;6.55;5.93;;;5.10;99.90;;;;;;4949434;28;20561;-70
2021/12/10 05:29:24;;;;;;;6.88;6.18;;;5.10;99.90;;;;;;4950469;28;20406;-71
2021/12/10 05:31:51;;;;;;;9.20;5.78;;;5.10;99.90;;;;;;4951374;28;20035;-69
2021/12/10 05:34:17;;;;;;;6.47;5.15;;;5.10;99.90;;;;;;4950330;28;20054;-67
2021/12/10 05:36:44;;;;;;;6.93;6.07;;;5.10;99.90;;;;;;4947926;28;20108;-68
2021/12/10 05:39:11;;;;;;;7.28;6.40;;;5.10;99.90;;;;;;4951482;28;20616;-68
2021/12/10 05:41:37;;;;;;;9.05;6.43;;;5.00;99.90;;;;;;4948558;28;20366;-68
2021/12/10 05:44:05;;;;;;;6.70;5.95;;;5.00;99.90;;;;;;4947784;28;20027;-69
2021/12/10 05:46:31;;;;;;;6.68;5.63;;;5.00;99.90;;;;;;4949023;28;20034;-68
2021/12/10 05:48:57;;;;;;;8.23;6.65;;;5.00;99.90;;;;;;4950126;28;20050;-69
2021/12/10 05:51:23;;;;;;;6.15;5.55;;;5.10;99.90;;;;;;4951038;28;20031;-69
2021/12/10 05:53:49;;;;;;;6.30;5.70;;;5.10;99.90;;;;;;4950717;28;20035;-69
2021/12/10 05:56:17;;;;;;;7.07;5.20;;;5.10;99.90;;;;;;4952101;29;20139;-70
2021/12/10 05:58:43;;;;;;;6.38;5.70;;;5.20;99.90;;;;;;4950028;28;20027;-69
2021/12/10 06:01:11;;;;;;;7.20;4.72;;;5.20;99.90;;;;;;4950197;28;20043;-69
2021/12/10 06:03:40;;;;;;;6.55;5.93;;;5.20;99.90;;;;;;4951272;28;20380;-70
2021/12/10 06:06:07;;;;;;;7.57;5.78;;;5.20;99.90;;;;;;4949517;28;20069;-71
2021/12/10 06:08:33;;;;;;;7.93;6.28;;;5.10;99.90;;;;;;4951694;28;20023;-68
2021/12/10 06:11:00;;;;;;;7.03;5.65;;;5.10;99.90;;;;;;4951349;28;20040;-68
2021/12/10 06:13:27;;;;;;;8.77;6.32;;;5.10;99.90;;;;;;4949043;28;20027;-69
2021/12/10 06:15:53;;;;;;;6.80;5.97;;;5.00;99.90;;;;;;4951950;28;20035;-69
2021/12/10 06:18:19;;;;;;;10.10;6.97;;;4.90;99.90;;;;;;4951530;28;20031;-68
2021/12/10 06:20:49;;;;;;;8.90;7.25;;;4.90;99.90;;;;;;4948996;28;20032;-68
2021/12/10 06:23:15;;;;;;;10.40;6.70;;;4.80;99.90;;;;;;4949052;28;20035;-70
2021/12/10 06:25:42;;;;;;;7.35;5.97;;;4.90;99.90;;;;;;4948697;28;20119;-71
2021/12/10 06:28:09;;;;;;;6.47;5.78;;;5.00;99.90;;;;;;4952526;28;20147;-70
2021/12/10 06:30:39;;;;;;;7.88;6.35;;;4.90;99.90;;;;;;4950483;28;20493;-70
2021/12/10 06:33:09;;;;;;;10.05;6.80;;;4.90;99.90;;;;;;4952422;28;20031;-69
2021/12/10 06:35:38;;;;;;;6.63;5.60;;;4.80;99.90;;;;;;4951491;28;20162;-70
2021/12/10 06:38:06;;;;;;;7.93;6.43;;;4.80;99.90;;;;;;4951779;28;20031;-69
2021/12/10 06:40:34;;;;;;;7.88;7.07;;;4.80;99.90;;;;;;4951525;28;20027;-71
2021/12/10 06:43:01;;;;;;;10.20;7.22;;;4.80;99.90;;;;;;4949224;29;20050;-69
2021/12/10 06:45:29;;;;;;;7.88;6.65;;;4.80;99.90;;;;;;4953872;29;20023;-68
2021/12/10 06:47:58;;;;;;;9.75;7.78;;;4.80;99.90;;;;;;4954093;28;20031;-69
2021/12/10 06:50:27;;;;;;;8.02;6.50;;;4.80;99.90;;;;;;4951376;28;20035;-71
2021/12/10 06:52:54;;;;;;;7.97;7.18;;;4.80;99.90;;;;;;4949557;29;20370;-69
2021/12/10 06:55:21;;;;;;;7.85;5.80;;;4.70;99.90;;;;;;4950642;28;20042;-69
2021/12/10 06:57:47;;;;;;;11.20;8.52;;;4.70;99.90;;;;;;4952011;28;20059;-69
2021/12/10 07:00:27;;;;;;;9.70;7.28;;;4.70;99.90;;;;;;4951886;28;20027;-68
2021/12/10 07:02:53;;;;;;;8.68;6.57;;;4.70;99.90;;;;;;4952517;28;20027;-69
2021/12/10 07:05:18;;;;;;;8.73;6.75;;;4.70;99.90;;;;;;4953434;28;20486;-70
2021/12/10 07:07:45;;;;;;;8.82;6.88;;;4.70;99.90;;;;;;4954633;28;20110;-70
2021/12/10 07:10:13;;;;;;;6.30;5.75;;;4.70;99.90;;;;;;4953179;28;20077;-70
2021/12/10 07:12:40;;;;;;;6.68;5.88;;;4.80;99.90;;;;;;4949753;28;20028;-70
2021/12/10 07:15:09;;;;;;;8.20;6.50;;;4.80;99.90;;;;;;4953460;28;20031;-69
2021/12/10 07:17:40;;;;;;;7.32;5.60;;;4.80;99.90;;;;;;4953461;29;20462;-70
2021/12/10 07:20:08;;;;;;;11.23;5.68;;;4.90;99.90;;;;;;4954450;28;20054;-71
2021/12/10 07:22:34;;;;;;;8.00;6.50;;;5.10;99.90;;;;;;4953722;28;20019;-69
2021/12/10 07:25:00;;;;;;;6.07;5.15;;;5.10;99.90;;;;;;4947568;28;20445;-69
2021/12/10 07:27:26;;;;;;;6.95;6.25;;;5.30;99.90;;;;;;4946923;28;20035;-68
2021/12/10 07:29:52;;;;;;;7.80;6.95;;;5.30;99.90;;;;;;4947012;28;20401;-70
2021/12/10 07:32:17;;;;;;;10.45;7.30;;;5.40;99.90;;;;;;4947067;28;20085;-71
2021/12/10 07:34:43;;;;;;;8.70;7.80;;;5.40;99.90;;;;;;4947587;28;20054;-71
2021/12/10 07:37:10;;;;;;;8.00;6.13;;;5.40;99.90;;;;;;4947481;28;20273;-70
2021/12/10 07:39:37;;;;;;;8.05;6.78;;;5.40;99.90;;;;;;4952371;28;20042;-69
2021/12/10 07:42:04;;;;;;;6.07;5.57;;;5.50;99.90;;;;;;4953477;28;20031;-69
2021/12/10 07:44:30;;;;;;;10.07;7.50;;;5.40;99.90;;;;;;4954356;28;20035;-70
2021/12/10 07:46:56;;;;;;;9.52;7.88;;;5.40;99.90;;;;;;4954871;28;20110;-70
2021/12/10 07:49:28;;;;;;;7.20;6.53;;;5.40;99.90;;;;;;4950545;28;20023;-70
2021/12/10 07:51:55;;;;;;;8.48;6.60;;;5.30;99.90;;;;;;4949969;28;20054;-70
2021/12/10 07:54:22;;;;;;;7.53;6.50;;;5.50;99.90;;;;;;4954670;28;20027;-70
2021/12/10 07:56:48;;;;;;;8.32;7.13;;;5.50;99.90;;;;;;4954680;28;20481;-70
2021/12/10 07:59:14;;;;;;;12.50;7.18;;;5.60;99.90;;;;;;4952039;28;20035;-73
2021/12/10 08:01:39;;;;;;;7.63;6.43;;;5.70;99.90;;;;;;4950997;28;20326;-70
2021/12/10 08:04:06;;;;;;;8.55;6.68;;;5.70;99.90;;;;;;4950601;28;20027;-70
2021/12/10 08:06:33;;;;;;;7.30;6.18;;;5.70;99.90;;;;;;4947261;28;20090;-69
2021/12/10 08:09:00;;;;;;;7.18;6.47;;;5.70;99.90;;;;;;4945886;28;20027;-69
2021/12/10 08:11:26;;;;;;;9.30;8.18;;;5.80;99.90;;;;;;4948783;28;20039;-69
2021/12/10 08:13:53;;;;;;;9.45;7.68;;;5.70;99.90;;;;;;4948477;28;20035;-68
2021/12/10 08:16:22;;;;;;;8.02;5.95;;;5.80;99.90;;;;;;4947503;28;20035;-69
2021/12/10 08:18:48;;;;;;;8.23;6.97;;;5.80;99.90;;;;;;4952920;28;20027;-69
2021/12/10 08:21:14;;;;;;;7.32;6.55;;;5.80;99.90;;;;;;4953464;28;20370;-69
2021/12/10 08:23:39;;;;;;;8.30;7.25;;;5.90;99.90;;;;;;4950040;28;20098;-69
2021/12/10 08:26:06;;;;;;;8.27;7.47;;;6.00;99.90;;;;;;4952244;28;20062;-67
2021/12/10 08:28:33;;;;;;;8.55;6.95;;;6.10;99.90;;;;;;4952507;28;20110;-71
2021/12/10 08:31:00;;;;;;;8.07;6.65;;;6.30;99.90;;;;;;4950018;28;20093;-69
2021/12/10 08:33:28;;;;;;;8.35;7.47;;;6.30;99.90;;;;;;4969614;28;20437;-72
2021/12/10 08:35:58;;;;;;;9.00;7.00;;;6.40;99.90;;;;;;4951730;28;20027;-68
2021/12/10 08:38:25;;;;;;;6.65;6.03;;;6.50;99.90;;;;;;4952809;28;20027;-70
2021/12/10 08:40:57;;;;;;;7.57;6.78;;;6.60;99.90;;;;;;4953650;28;20042;-65
2021/12/10 08:43:23;;;;;;;7.55;6.65;;;6.60;99.90;;;;;;4950417;28;20343;-65
2021/12/10 08:45:52;;;;;;;9.25;7.00;;;6.60;99.90;;;;;;4952413;28;20054;-66
2021/12/10 08:48:26;;;;;;;7.13;6.43;;;6.60;99.90;;;;;;4949290;29;20385;-66
2021/12/10 08:50:53;;;;;;;6.13;5.53;;;6.60;99.90;;;;;;4952774;29;20083;-66
2021/12/10 08:53:19;;;;;;;7.72;5.63;;;6.70;99.90;;;;;;4953852;29;20035;-65
2021/12/10 08:55:48;;;;;;;6.68;5.57;;;6.90;99.90;;;;;;4953781;29;20081;-66
2021/12/10 08:58:15;;;;;;;6.72;6.03;;;6.90;99.90;;;;;;4948788;29;20023;-66
2021/12/10 09:00:47;;;;;;;5.55;5.05;;;7.10;99.90;;;;;;4953285;28;20114;-65
2021/12/10 09:03:13;;;;;;;5.18;4.40;;;7.10;99.90;;;;;;4952789;29;20039;-64
2021/12/10 09:05:39;;;;;;;6.53;5.45;;;7.20;99.90;;;;;;4948855;28;20042;-66
2021/12/10 09:08:06;;;;;;;8.57;4.32;;;7.20;99.90;;;;;;4953719;28;20047;-65
2021/12/10 09:10:36;;;;;;;7.28;5.00;;;7.20;99.90;;;;;;4952679;28;20501;-64
2021/12/10 09:13:05;;;;;;;8.30;5.93;;;7.20;99.90;;;;;;4952213;28;20031;-65
2021/12/10 09:15:32;;;;;;;11.23;6.03;;;7.20;99.90;;;;;;4950715;29;20608;-65
2021/12/10 09:17:59;;;;;;;7.57;5.90;;;7.20;99.90;;;;;;4937060;29;20031;-66
2021/12/10 09:20:32;;;;;;;7.68;6.20;;;7.30;99.90;;;;;;4952738;28;20023;-66
2021/12/10 09:22:59;;;;;;;7.82;5.35;;;7.30;99.90;;;;;;4951113;29;20546;-65
2021/12/10 09:25:26;;;;;;;6.35;5.50;;;7.50;99.90;;;;;;4950569;28;20032;-66
2021/12/10 09:27:52;;;;;;;8.50;6.50;;;7.60;99.90;;;;;;4953118;29;20028;-65
2021/12/10 09:30:23;;;;;;;9.05;6.57;;;7.70;99.90;;;;;;4952159;29;20030;-67
2021/12/10 09:32:49;;;;;;;6.20;5.60;;;7.80;99.90;;;;;;4952399;29;20031;-66
2021/12/10 09:35:18;;;;;;;6.75;6.03;;;7.90;99.90;;;;;;4951180;29;20516;-65
2021/12/10 09:37:44;;;;;;;7.18;6.22;;;8.00;99.90;;;;;;4952658;29;20031;-65
2021/12/10 09:40:14;;;;;;;7.40;5.68;;;8.10;99.90;;;;;;4952070;29;20402;-66
2021/12/10 09:42:41;;;;;;;6.90;6.18;;;8.20;99.90;;;;;;4952193;29;20026;-66
2021/12/10 09:45:10;;;;;;;7.72;6.25;;;8.40;99.90;;;;;;4952032;29;20481;-66
2021/12/10 09:47:37;;;;;;;5.68;5.18;;;8.30;99.90;;;;;;4952364;29;20023;-67
2021/12/10 09:50:05;;;;;;;6.93;5.00;;;8.30;99.90;;;;;;4952696;29;20047;-66
2021/12/10 09:52:31;;;;;;;12.13;6.20;;;8.30;99.90;;;;;;4951456;29;20027;-66
2021/12/10 09:55:00;;;;;;;5.40;4.90;;;8.20;99.90;;;;;;4952548;29;20054;-65
2021/12/10 09:57:32;;;;;;;4.85;4.18;;;8.20;99.90;;;;;;4952356;28;20038;-65
2021/12/10 10:00:05;;;;;;;8.82;5.22;;;8.20;99.90;;;;;;4950668;29;20028;-68
2021/12/10 10:02:32;;;;;;;5.25;4.75;;;8.30;99.90;;;;;;4952577;28;20038;-68
2021/12/10 10:04:58;;;;;;;6.07;5.00;;;8.30;99.90;;;;;;4950159;29;20401;-68
2021/12/10 10:07:28;;;;;;;6.90;5.90;;;8.40;99.90;;;;;;4952762;29;20030;-68
2021/12/10 10:09:58;;;;;;;5.63;5.05;;;8.40;99.90;;;;;;4951328;29;20039;-68
2021/12/10 10:12:33;;;;;;;6.40;5.25;;;8.50;99.90;;;;;;4952350;29;20485;-68
2021/12/10 10:15:02;;;;;;;5.80;5.28;;;8.60;99.90;;;;;;4952145;29;20125;-68
2021/12/10 10:17:28;;;;;;;6.57;5.35;;;8.60;99.90;;;;;;4952553;29;20115;-68
2021/12/10 10:19:54;;;;;;;6.18;5.10;;;8.60;99.90;;;;;;4951713;29;20573;-67
2021/12/10 10:22:25;;;;;;;6.40;5.80;;;8.60;99.90;;;;;;4951969;29;20465;-69
2021/12/10 10:24:52;;;;;;;7.57;5.55;;;8.50;99.90;;;;;;4952405;29;20032;-67
2021/12/10 10:27:27;;;;;;;5.93;4.88;;;8.50;99.90;;;;;;4950632;28;20023;-67
2021/12/10 10:30:10;;;;;;;7.18;5.28;;;8.70;99.90;;;;;;4951103;29;20051;-68
2021/12/10 10:32:37;;;;;;;5.75;5.25;;;8.70;99.90;;;;;;4950356;28;20019;-66
2021/12/10 10:35:15;;;;;;;5.88;5.07;;;8.90;99.90;;;;;;4951582;28;20031;-68
2021/12/10 10:37:41;;;;;;;5.25;4.65;;;9.00;99.90;;;;;;4951887;28;20433;-68
2021/12/10 10:40:11;;;;;;;5.35;4.85;;;9.00;99.90;;;;;;4955242;29;20063;-68
2021/12/10 10:42:37;;;;;;;5.85;4.35;;;9.00;99.90;;;;;;4956197;29;20050;-68
2021/12/10 10:45:08;;;;;;;6.35;5.00;;;9.10;99.90;;;;;;4956084;29;20489;-68
2021/12/10 10:47:34;;;;;;;5.30;4.80;;;9.20;99.90;;;;;;4955574;29;20035;-68
2021/12/10 10:50:11;;;;;;;7.68;5.18;;;9.40;99.90;;;;;;4955811;29;20086;-67
2021/12/10 10:52:39;;;;;;;6.32;4.78;;;9.60;99.90;;;;;;4955540;29;20025;-67
2021/12/10 10:55:11;;;;;;;5.70;4.75;;;9.60;99.90;;;;;;4955530;29;20160;-68
2021/12/10 10:57:47;;;;;;;5.80;5.30;;;9.60;99.90;;;;;;4954239;29;20035;-66
2021/12/10 11:00:34;;;;;;;5.40;4.90;;;9.40;99.90;;;;;;4955763;29;20050;-68
2021/12/10 11:03:09;;;;;;;5.32;4.82;;;9.30;99.90;;;;;;4958163;29;20370;-67
2021/12/10 11:05:50;;;;;;;7.50;6.80;;;9.40;99.90;;;;;;4955999;29;20442;-67
2021/12/10 11:08:30;;;;;;;5.03;4.53;;;9.50;99.90;;;;;;4955968;29;20027;-67
2021/12/10 11:11:06;;;;;;;6.40;5.32;;;9.70;99.90;;;;;;4955844;28;20062;-66
2021/12/10 11:13:32;;;;;;;8.30;5.57;;;10.00;99.90;;;;;;4952970;29;20031;-66
2021/12/10 11:16:06;;;;;;;6.30;5.72;;;10.00;99.90;;;;;;4955702;29;20047;-67
2021/12/10 11:18:49;;;;;;;8.52;6.32;;;10.10;99.90;;;;;;4955385;29;20035;-67
2021/12/10 11:21:16;;;;;;;5.47;4.93;;;10.10;99.90;;;;;;4954435;29;20028;-68
2021/12/10 11:23:43;;;;;;;5.07;4.57;;;9.90;99.90;;;;;;4954439;29;20031;-68
2021/12/10 11:26:10;;;;;;;5.90;5.38;;;9.80;99.90;;;;;;4954344;28;20038;-68
2021/12/10 11:28:41;;;;;;;7.57;5.03;;;9.80;99.90;;;;;;4954853;28;20050;-69
2021/12/10 11:31:16;;;;;;;5.32;4.78;;;9.70;99.90;;;;;;4955248;29;20031;-68
2021/12/10 11:33:49;;;;;;;5.53;5.03;;;9.50;99.90;;;;;;4954598;29;20031;-67
2021/12/10 11:36:27;;;;;;;5.78;5.18;;;9.30;99.90;;;;;;4954270;28;20037;-67
2021/12/10 11:38:56;;;;;;;6.63;4.07;;;9.40;99.90;;;;;;4954109;28;20027;-68
2021/12/10 11:41:26;;;;;;;5.47;4.72;;;9.40;99.90;;;;;;4954813;29;20122;-68
2021/12/10 11:46:51;;;;;;;7.85;4.60;;;9.50;99.90;;;;;;4954418;29;20476;-68
2021/12/10 11:49:26;;;;;;;11.40;6.72;;;9.70;99.90;;;;;;4952131;28;20036;-69
2021/12/10 11:52:03;;;;;;;6.35;5.75;;;9.70;99.90;;;;;;4955792;28;20030;-68
2021/12/10 11:55:02;;;;;;;6.05;5.43;;;9.30;99.90;;;;;;4953893;29;20115;-67
2021/12/10 11:57:40;;;;;;;6.13;5.53;;;9.20;99.90;;;;;;4944116;29;20110;-68
2021/12/10 12:00:18;;;;;;;7.70;6.90;;;8.70;99.90;;;;;;4954347;29;20042;-67
2021/12/10 12:02:53;;;;;;;11.57;5.57;;;8.60;99.90;;;;;;4954934;29;20262;-68
2021/12/10 12:05:30;;;;;;;7.90;6.22;;;8.70;99.90;;;;;;4954245;29;20062;-68
2021/12/10 12:08:04;;;;;;;11.18;6.57;;;8.70;99.90;;;;;;4954628;29;20077;-68
2021/12/10 12:10:46;;;;;;;8.50;7.10;;;8.60;99.90;;;;;;4954474;29;20023;-67
2021/12/10 12:13:30;;;;;;;19.98;7.43;;;8.60;99.90;;;;;;4947870;29;20038;-68
2021/12/10 12:16:13;;;;;;;7.88;6.93;;;8.70;99.90;;;;;;4952213;29;20039;-68
2021/12/10 12:18:52;;;;;;;9.65;7.47;;;8.80;99.90;;;;;;4953930;29;20065;-67
2021/12/10 12:27:12;;;;;;;8.40;7.60;;;8.70;99.90;;;;;;4953962;29;20536;-67
2021/12/10 12:29:46;;;;;;;8.75;7.60;;;9.00;99.90;;;;;;4956294;28;20393;-69
2021/12/10 12:32:14;;;;;;;9.27;7.68;;;9.00;99.90;;;;;;4953896;28;20482;-68
2021/12/10 12:34:40;;;;;;;8.82;6.72;;;8.80;99.90;;;;;;4953479;28;20066;-67
2021/12/10 12:37:09;;;;;;;8.60;6.28;;;8.70;99.90;;;;;;4952237;29;20404;-65
2021/12/10 12:39:51;;;;;;;9.82;6.72;;;8.60;99.90;;;;;;4952258;28;20102;-69
2021/12/10 12:42:23;;;;;;;8.30;5.97;;;8.30;99.90;;;;;;4952246;28;20031;-66
2021/12/10 12:45:00;;;;;;;8.82;6.97;;;8.10;99.90;;;;;;4953531;28;20389;-68
2021/12/10 12:47:33;;;;;;;9.70;7.43;;;8.00;99.90;;;;;;4951762;28;20454;-72
2021/12/10 12:50:05;;;;;;;8.20;7.40;;;8.10;99.90;;;;;;4952936;28;20106;-67
2021/12/10 12:52:42;;;;;;;7.28;6.57;;;8.20;99.90;;;;;;4951514;28;20024;-66
2021/12/10 12:55:26;;;;;;;7.10;6.30;;;8.40;99.90;;;;;;4947619;28;20505;-67
2021/12/10 12:58:23;;;;;;;7.10;6.45;;;8.50;99.90;;;;;;4951321;28;20564;-66
2021/12/10 13:01:19;;;;;;;7.03;6.32;;;8.60;99.90;;;;;;4937437;29;20039;-68
2021/12/10 13:03:59;;;;;;;8.55;6.60;;;8.40;99.90;;;;;;4938565;29;20042;-68
2021/12/10 13:06:27;;;;;;;8.32;6.00;;;8.30;99.90;;;;;;4952943;28;20767;-66
2021/12/10 13:09:42;;;;;;;7.38;6.10;;;8.30;99.90;;;;;;4952002;28;20525;-66
2021/12/10 13:12:23;;;;;;;8.40;7.03;;;8.40;99.90;;;;;;4912301;29;20060;-67
2021/12/10 13:14:57;;;;;;;8.98;6.65;;;8.50;99.90;;;;;;4911983;29;20051;-67
2021/12/10 13:17:26;;;;;;;6.88;6.18;;;8.40;99.90;;;;;;4938633;28;20401;-65
2021/12/10 13:19:54;;;;;;;6.85;6.22;;;8.50;99.90;;;;;;4952333;28;20042;-68
2021/12/10 13:22:24;;;;;;;7.63;6.45;;;8.60;99.90;;;;;;4951524;29;20027;-68
2021/12/10 13:24:53;;;;;;;8.48;6.38;;;8.60;99.90;;;;;;4950953;28;20023;-68